Time;durP1;ratioP1;P1;durP2;ratioP2;P2;SDS_P1;SDS_P2;PMS_P1;PMS_P2;Temp;Humidity;BMP_temperature;BMP_pressure;BME280_temperature;BME280_humidity;BME280_pressure;Samples;Min_cycle;Max_cycle;Signal;HPM_P1;HPM_P2
2022/05/16 00:01:41;;;;;;;;;;;;;;;8.25;67.69;101804.02;1722916;83;20537;-86
2022/05/16 00:04:07;;;;;;;;;;;;;;;8.21;67.81;101812.13;1739020;82;20221;-85
2022/05/16 00:06:36;;;;;;;;;;;;;;;8.17;67.94;101810.18;1723969;82;21754;-85
2022/05/16 00:09:05;;;;;;;;;;;;;;;8.14;68.10;101810.01;1747151;81;21342;-86
2022/05/16 00:11:31;;;;;;;;;;;;;;;8.11;68.15;101808.56;1746911;82;20212;-85
2022/05/16 00:13:58;;;;;;;;;;;;;;;8.08;68.28;101809.70;1707479;82;21162;-85
2022/05/16 00:16:24;;;;;;;;;;;;;;;8.06;68.27;101806.10;1701377;84;20224;-85
2022/05/16 00:18:51;;;;;;;;;;;;;;;8.05;68.32;101810.84;1686328;84;21874;-85
2022/05/16 00:21:20;;;;;;;;;;;;;;;8.04;68.39;101808.64;1690662;83;20351;-85
2022/05/16 00:23:47;;;;;;;;;;;;;;;8.03;68.46;101805.93;1699397;83;20201;-85
2022/05/16 00:26:13;;;;;;;;;;;;;;;8.04;68.45;101808.64;1698535;84;20377;-86
2022/05/16 00:28:39;;;;;;;;;;;;;;;8.02;68.41;101814.22;1679936;84;20187;-85
2022/05/16 00:31:06;;;;;;;;;;;;;;;7.98;68.29;101814.88;1702936;84;21759;-85
2022/05/16 00:33:32;;;;;;;;;;;;;;;7.87;68.28;101806.86;1696528;82;20204;-85
2022/05/16 00:35:59;;;;;;;;;;;;;;;7.91;68.35;101814.06;1701448;83;20350;-85
2022/05/16 00:38:25;;;;;;;;;;;;;;;7.89;68.25;101817.91;1664943;84;20426;-84
2022/05/16 00:40:52;;;;;;;;;;;;;;;7.85;68.22;101813.33;1686803;84;20234;-85
2022/05/16 00:43:26;;;;;;;;;;;;;;;7.82;68.31;101812.26;1680519;84;20565;-84
2022/05/16 00:45:52;;;;;;;;;;;;;;;7.80;68.35;101814.80;1701331;84;20260;-84
2022/05/16 00:48:19;;;;;;;;;;;;;;;7.79;68.47;101819.14;1703719;83;20224;-84
2022/05/16 00:50:47;;;;;;;;;;;;;;;7.79;68.54;101817.83;1707232;83;20553;-85
2022/05/16 00:53:13;;;;;;;;;;;;;;;7.76;68.53;101820.28;1683960;83;20230;-86
2022/05/16 00:55:42;;;;;;;;;;;;;;;7.76;68.59;101817.66;1703842;83;21739;-86
2022/05/16 00:58:12;;;;;;;;;;;;;;;7.76;68.69;101819.39;1682873;84;20204;-86
2022/05/16 01:00:39;;;;;;;;;;;;;;;7.76;68.71;101822.01;1690990;83;20277;-86
2022/05/16 01:05:56;;;;;;;;;;;;;;;7.77;68.89;101822.09;1688329;84;20211;-85
2022/05/16 01:08:24;;;;;;;;;;;;;;;7.79;68.97;101819.56;1684422;83;21700;-87
2022/05/16 01:10:51;;;;;;;;;;;;;;;7.80;69.03;101823.97;1692292;83;20200;-86
2022/05/16 01:13:18;;;;;;;;;;;;;;;7.80;69.04;101817.41;1692730;82;20248;-86
2022/05/16 01:15:47;;;;;;;;;;;;;;;7.83;69.11;101820.59;1703831;84;20667;-86
2022/05/16 01:18:16;;;;;;;;;;;;;;;7.82;69.04;101821.02;1703479;83;20557;-85
2022/05/16 01:21:05;;;;;;;;;;;;;;;7.81;69.00;101819.62;1703317;84;21762;-85
2022/05/16 01:23:45;;;;;;;;;;;;;;;7.78;69.04;101814.70;1684404;83;20516;-84
2022/05/16 01:26:19;;;;;;;;;;;;;;;7.78;69.10;101815.12;1678924;84;20789;-84
2022/05/16 01:28:46;;;;;;;;;;;;;;;7.77;69.13;101822.09;1703569;83;21230;-85
2022/05/16 01:31:12;;;;;;;;;;;;;;;7.75;69.15;101823.73;1696576;84;20265;-84
2022/05/16 01:33:38;;;;;;;;;;;;;;;7.76;69.26;101820.70;1687578;84;21753;-85
2022/05/16 01:36:11;;;;;;;;;;;;;;;7.75;69.24;101819.80;1683383;83;21014;-85
2022/05/16 01:38:39;;;;;;;;;;;;;;;7.73;69.26;101816.59;1703559;83;20200;-86
2022/05/16 01:41:11;;;;;;;;;;;;;;;7.71;69.32;101818.23;1683301;84;20398;-85
2022/05/16 01:43:41;;;;;;;;;;;;;;;7.58;69.37;101794.39;1703079;84;20204;-85
2022/05/16 01:46:08;;;;;;;;;;;;;;;7.69;69.42;101815.52;1703262;84;21816;-87
2022/05/16 01:48:34;;;;;;;;;;;;;;;7.69;69.44;101818.56;1679616;83;20236;-86
2022/05/16 01:51:04;;;;;;;;;;;;;;;7.67;69.44;101817.16;1686870;84;20890;-85
2022/05/16 01:53:30;;;;;;;;;;;;;;;7.65;69.45;101821.84;1693706;84;21584;-84
2022/05/16 01:55:59;;;;;;;;;;;;;;;7.63;69.51;101816.93;1680125;84;20203;-86
2022/05/16 01:58:31;;;;;;;;;;;;;;;7.62;69.51;101813.80;1692366;84;21986;-84
2022/05/16 02:00:58;;;;;;;;;;;;;;;7.59;69.53;101809.31;1686327;84;20209;-84
2022/05/16 02:03:24;;;;;;;;;;;;;;;7.56;69.55;101805.20;1701197;84;20227;-85
2022/05/16 02:05:51;;;;;;;;;;;;;;;7.52;69.54;101811.99;1694978;84;20404;-86
2022/05/16 02:08:17;;;;;;;;;;;;;;;7.50;69.54;101811.01;1691035;83;20682;-86
2022/05/16 02:10:44;;;;;;;;;;;;;;;7.47;69.58;101812.17;1692139;84;22594;-86
2022/05/16 02:13:11;;;;;;;;;;;;;;;7.45;69.50;101813.81;1707983;83;20188;-86
2022/05/16 02:15:38;;;;;;;;;;;;;;;7.41;69.52;101806.58;1720528;83;20183;-85
2022/05/16 02:18:05;;;;;;;;;;;;;;;7.38;69.51;101814.28;1712401;83;20402;-86
2022/05/16 02:20:31;;;;;;;;;;;;;;;7.35;69.59;101812.80;1716083;83;20673;-86
2022/05/16 02:25:45;;;;;;;;;;;;;;;7.27;69.67;101811.06;1707421;83;20243;-85
2022/05/16 02:28:14;;;;;;;;;;;;;;;7.23;69.75;101813.45;1697963;83;20684;-85
2022/05/16 02:30:43;;;;;;;;;;;;;;;7.19;69.82;101811.95;1713291;83;20339;-86
2022/05/16 02:33:10;;;;;;;;;;;;;;;7.17;69.92;101810.05;1716361;83;20220;-86
2022/05/16 02:35:36;;;;;;;;;;;;;;;7.15;69.97;101819.16;1718589;83;21771;-86
2022/05/16 02:38:03;;;;;;;;;;;;;;;7.13;70.01;101818.17;1700626;83;20923;-86
2022/05/16 02:40:30;;;;;;;;;;;;;;;7.14;70.07;101817.75;1708825;83;20223;-87
2022/05/16 02:42:57;;;;;;;;;;;;;;;7.16;70.09;101816.12;1708733;83;20440;-86
2022/05/16 02:45:24;;;;;;;;;;;;;;;7.16;70.10;101810.88;1718362;82;20152;-87
2022/05/16 02:47:51;;;;;;;;;;;;;;;7.16;70.14;101814.80;1666514;83;21738;-85
2022/05/16 02:50:20;;;;;;;;;;;;;;;7.17;70.21;101815.28;1708756;83;20227;-85
2022/05/16 02:53:10;;;;;;;;;;;;;;;7.19;70.25;101817.19;1689443;83;20245;-86
2022/05/16 02:55:55;;;;;;;;;;;;;;;;;;;;;
2022/05/16 02:58:36;;;;;;;;;;;;;;;7.25;70.34;101820.56;1683547;82;20203;-88
2022/05/16 03:01:47;;;;;;;;;;;;;;;;;;;;;
2022/05/16 03:04:01;;;;;;;;;;;;;;;7.37;70.34;101817.70;1589679;86;20234;-93
2022/05/16 03:09:37;;;;;;;;;;;;;;;7.54;70.28;101814.28;1630891;86;20264;-86
2022/05/16 03:12:06;;;;;;;;;;;;;;;7.67;70.13;101822.82;1662204;84;20251;-86
2022/05/16 03:14:32;;;;;;;;;;;;;;;7.75;70.03;101817.19;1683939;83;21755;-86
2022/05/16 03:17:03;;;;;;;;;;;;;;;7.84;69.89;101817.17;1691442;84;20261;-86
2022/05/16 03:19:35;;;;;;;;;;;;;;;7.92;69.92;101816.77;1687991;84;20266;-86
2022/05/16 03:22:05;;;;;;;;;;;;;;;8.08;69.85;101818.88;1670220;85;20371;-85
2022/05/16 03:24:32;;;;;;;;;;;;;;;8.24;69.74;101825.80;1643372;86;20222;-86
2022/05/16 03:27:05;;;;;;;;;;;;;;;8.40;69.70;101821.84;1672014;85;21819;-86
2022/05/16 03:29:34;;;;;;;;;;;;;;;8.64;69.62;101816.08;1668815;84;20223;-86
2022/05/16 03:32:02;;;;;;;;;;;;;;;8.95;69.64;101814.14;1671032;84;20264;-87
2022/05/16 03:34:31;;;;;;;;;;;;;;;9.66;70.34;101813.50;1641695;85;20461;-86
2022/05/16 03:36:57;;;;;;;;;;;;;;;10.29;69.19;101806.20;1694273;83;20221;-86
2022/05/16 03:41:58;;;;;;;;;;;;;;;11.70;68.82;101810.11;1679617;83;20849;-87
2022/05/16 03:44:24;;;;;;;;;;;;;;;13.09;68.44;101807.88;1742942;81;20766;-87
2022/05/16 03:50:26;;;;;;;;;;;;;;;;;;;;;
2022/05/16 03:53:12;;;;;;;;;;;;;;;17.77;62.89;101792.53;1717912;82;20254;-85
2022/05/16 03:55:36;;;;;;;;;;;;;;;19.13;60.29;101788.08;1715950;82;20480;-85
2022/05/16 03:58:04;;;;;;;;;;;;;;;20.07;58.21;101791.17;1732160;80;20592;-88
2022/05/16 04:00:33;;;;;;;;;;;;;;;20.80;56.42;101769.84;1743289;81;20394;-86
2022/05/16 04:03:00;;;;;;;;;;;;;;;21.56;55.00;101787.54;1722752;81;20755;-84
2022/05/16 04:05:49;;;;;;;;;;;;;;;22.30;53.54;101783.16;1734960;81;22882;-85
2022/05/16 04:07:58;;;;;;;;;;;;;;;22.88;51.74;101786.69;1723050;82;21033;-89
2022/05/16 04:10:24;;;;;;;;;;;;;;;23.32;50.66;101784.93;1717509;81;20239;-91
2022/05/16 04:12:54;;;;;;;;;;;;;;;24.04;49.71;101788.04;1724425;81;20382;-85
2022/05/16 04:15:21;;;;;;;;;;;;;;;24.75;48.27;101784.26;1722069;81;20270;-84
2022/05/16 04:17:48;;;;;;;;;;;;;;;25.34;47.11;101794.85;1711133;81;21931;-85
2022/05/16 04:20:14;;;;;;;;;;;;;;;25.84;46.00;101792.91;1730229;82;20845;-85
2022/05/16 04:22:40;;;;;;;;;;;;;;;26.35;44.83;101795.38;1733434;82;20461;-85
2022/05/16 04:25:07;;;;;;;;;;;;;;;26.62;43.55;101790.23;1732739;82;22056;-86
2022/05/16 04:27:34;;;;;;;;;;;;;;;26.81;43.09;101796.52;1734637;82;20145;-86
2022/05/16 04:30:04;;;;;;;;;;;;;;;27.13;42.12;101795.64;1698776;81;20285;-86
2022/05/16 04:32:35;;;;;;;;;;;;;;;27.50;41.70;101794.64;1697905;83;20187;-86
2022/05/16 04:35:07;;;;;;;;;;;;;;;28.19;40.95;101793.88;1716980;83;20235;-86
2022/05/16 04:37:35;;;;;;;;;;;;;;;28.96;40.19;101794.06;1712070;83;20603;-88
2022/05/16 04:40:19;;;;;;;;;;;;;;;;;;;;;
2022/05/16 04:42:48;;;;;;;;;;;;;;;30.42;38.39;101789.85;1717843;82;22737;-88
2022/05/16 04:45:20;;;;;;;;;;;;;;;30.97;37.22;101792.08;1744121;82;20884;-89
2022/05/16 04:48:07;;;;;;;;;;;;;;;31.42;36.38;101790.04;1743430;82;20612;-90
2022/05/16 04:50:38;;;;;;;;;;;;;;;31.86;35.51;101788.47;1675353;85;21143;-87
2022/05/16 04:53:17;;;;;;;;;;;;;;;32.41;34.73;101785.38;1679438;83;20217;-87
2022/05/16 04:55:56;;;;;;;;;;;;;;;32.72;33.85;101786.97;1651388;85;20777;-87
2022/05/16 04:58:29;;;;;;;;;;;;;;;33.04;33.31;101788.97;1679473;84;20778;-88
2022/05/16 05:01:08;;;;;;;;;;;;;;;33.35;32.57;101787.33;1681084;84;20264;-87
2022/05/16 05:03:40;;;;;;;;;;;;;;;33.51;32.07;101788.26;1657346;85;20437;-87
2022/05/16 05:06:26;;;;;;;;;;;;;;;33.77;31.43;101790.03;1677674;85;20272;-87
2022/05/16 05:08:56;;;;;;;;;;;;;;;34.00;30.96;101789.61;1673771;83;23024;-88
2022/05/16 05:14:35;;;;;;;;;;;;;;;34.30;29.75;101792.06;1648650;85;20254;-87
2022/05/16 05:17:05;;;;;;;;;;;;;;;34.55;29.38;101792.84;1666433;84;20419;-87
2022/05/16 05:19:44;;;;;;;;;;;;;;;34.79;28.99;101798.22;1656939;84;20274;-85
2022/05/16 05:22:19;;;;;;;;;;;;;;;35.00;28.48;101793.78;1659510;84;20251;-87
2022/05/16 05:24:45;;;;;;;;;;;;;;;35.10;28.10;101791.34;1615898;87;20261;-88
2022/05/16 05:27:12;;;;;;;;;;;;;;;35.24;27.81;101792.78;1627617;83;20344;-88
2022/05/16 05:29:38;;;;;;;;;;;;;;;35.29;27.57;101793.37;1702088;82;20355;-88
2022/05/16 05:32:06;;;;;;;;;;;;;;;35.35;27.31;101800.32;1719024;82;20207;-88
2022/05/16 05:34:35;;;;;;;;;;;;;;;34.79;26.77;101792.75;1714031;82;21783;-87
2022/05/16 05:37:01;;;;;;;;;;;;;;;32.89;26.80;101796.12;1717012;82;20208;-86
2022/05/16 05:39:31;;;;;;;;;;;;;;;30.64;27.04;101793.03;1717119;82;20498;-86
2022/05/16 05:41:56;;;;;;;;;;;;;;;28.63;28.03;101786.63;1714061;83;20647;-87
2022/05/16 05:44:22;;;;;;;;;;;;;;;27.06;29.03;101791.33;1708922;83;20817;-87
2022/05/16 05:46:49;;;;;;;;;;;;;;;25.79;29.90;101788.98;1697494;83;22748;-87
2022/05/16 05:49:15;;;;;;;;;;;;;;;24.82;30.82;101792.67;1702574;83;20198;-87
2022/05/16 05:51:42;;;;;;;;;;;;;;;24.21;31.71;101796.77;1698984;83;20196;-87
2022/05/16 05:54:08;;;;;;;;;;;;;;;23.65;32.29;101790.36;1703545;83;20230;-88
2022/05/16 05:56:34;;;;;;;;;;;;;;;23.03;32.85;101793.74;1719445;82;20224;-87
2022/05/16 05:59:01;;;;;;;;;;;;;;;22.44;33.53;101789.29;1712949;83;21702;-87
2022/05/16 06:01:27;;;;;;;;;;;;;;;21.95;33.91;101790.94;1694067;83;20206;-88
2022/05/16 06:03:54;;;;;;;;;;;;;;;21.59;34.40;101787.54;1694356;83;20187;-88
2022/05/16 06:06:20;;;;;;;;;;;;;;;21.26;34.68;101785.38;1707197;83;21634;-87
2022/05/16 06:08:47;;;;;;;;;;;;;;;21.03;35.13;101783.21;1701616;83;20188;-87
2022/05/16 06:11:13;;;;;;;;;;;;;;;20.74;35.35;101787.70;1694017;83;21749;-87
2022/05/16 06:13:40;;;;;;;;;;;;;;;20.54;35.63;101789.00;1697245;83;20253;-87
2022/05/16 06:16:06;;;;;;;;;;;;;;;20.43;35.89;101784.55;1703668;82;20202;-87
2022/05/16 06:18:33;;;;;;;;;;;;;;;20.38;36.03;101785.45;1676409;83;20431;-87
2022/05/16 06:20:59;;;;;;;;;;;;;;;20.29;36.22;101785.44;1683720;83;20252;-86
2022/05/16 06:23:26;;;;;;;;;;;;;;;20.16;36.37;101788.52;1686986;84;22583;-86
2022/05/16 06:25:53;;;;;;;;;;;;;;;20.03;36.51;101786.72;1682218;83;20242;-87
2022/05/16 06:28:22;;;;;;;;;;;;;;;19.90;36.62;101794.26;1683822;84;20228;-87
2022/05/16 06:30:51;;;;;;;;;;;;;;;19.80;36.78;101790.22;1684541;83;20398;-86
2022/05/16 06:33:20;;;;;;;;;;;;;;;19.82;37.12;101794.23;1665252;85;20201;-87
2022/05/16 06:35:47;;;;;;;;;;;;;;;19.82;37.16;101788.89;1684262;85;21833;-87
2022/05/16 06:38:21;;;;;;;;;;;;;;;19.81;37.25;101789.31;1684459;84;21514;-87
2022/05/16 06:40:48;;;;;;;;;;;;;;;19.74;37.19;101789.28;1684508;85;20236;-87
2022/05/16 06:43:15;;;;;;;;;;;;;;;19.61;37.35;101789.22;1684537;85;21499;-87
2022/05/16 06:45:41;;;;;;;;;;;;;;;19.48;37.41;101797.16;1684607;83;20324;-87
2022/05/16 06:48:08;;;;;;;;;;;;;;;19.34;37.62;101791.75;1684195;85;21856;-87
2022/05/16 06:50:35;;;;;;;;;;;;;;;19.21;37.95;101794.34;1684375;85;20941;-87
2022/05/16 06:53:03;;;;;;;;;;;;;;;19.15;38.24;101784.97;1684222;84;20209;-88
2022/05/16 06:55:29;;;;;;;;;;;;;;;19.15;38.39;101786.30;1737764;82;20396;-87
2022/05/16 06:57:56;;;;;;;;;;;;;;;19.16;38.53;101784.10;1699508;83;20202;-87
2022/05/16 07:00:22;;;;;;;;;;;;;;;19.19;38.60;101785.44;1711471;83;22563;-87
2022/05/16 07:02:49;;;;;;;;;;;;;;;19.19;38.52;101792.11;1717621;82;20624;-87
2022/05/16 07:05:16;;;;;;;;;;;;;;;19.18;38.61;101790.34;1717802;83;20903;-87
2022/05/16 07:07:42;;;;;;;;;;;;;;;19.22;38.59;101793.47;1717893;83;20425;-87
2022/05/16 07:10:09;;;;;;;;;;;;;;;19.21;38.40;101795.67;1715456;82;20188;-87
2022/05/16 07:12:35;;;;;;;;;;;;;;;19.14;38.56;101791.17;1696227;83;22559;-87
2022/05/16 07:15:02;;;;;;;;;;;;;;;19.12;38.71;101794.73;1713683;82;21011;-87
2022/05/16 07:17:29;;;;;;;;;;;;;;;19.08;38.74;101794.27;1707532;84;20223;-87
2022/05/16 07:19:55;;;;;;;;;;;;;;;19.04;38.84;101798.69;1686154;84;20416;-86
2022/05/16 07:22:25;;;;;;;;;;;;;;;19.04;39.21;101792.90;1695016;84;20275;-87
2022/05/16 07:24:53;;;;;;;;;;;;;;;19.16;39.22;101795.19;1684141;84;21853;-87
2022/05/16 07:30:06;;;;;;;;;;;;;;;19.35;38.95;101798.44;1685589;84;20951;-86
2022/05/16 07:32:36;;;;;;;;;;;;;;;19.41;38.89;101798.92;1703496;83;20405;-86
2022/05/16 07:35:04;;;;;;;;;;;;;;;19.45;38.79;101802.50;1656371;85;20213;-86
2022/05/16 07:37:31;;;;;;;;;;;;;;;19.42;38.84;101799.34;1674895;85;21759;-87
2022/05/16 07:39:58;;;;;;;;;;;;;;;19.39;38.97;101805.58;1673450;84;20827;-86
2022/05/16 07:42:25;;;;;;;;;;;;;;;19.36;39.09;101802.87;1675083;84;20242;-86
2022/05/16 07:44:51;;;;;;;;;;;;;;;19.33;39.11;101804.22;1675139;84;20337;-85
2022/05/16 07:47:18;;;;;;;;;;;;;;;19.33;39.49;101804.22;1656045;85;20986;-86
2022/05/16 07:49:44;;;;;;;;;;;;;;;19.35;39.35;101799.78;1678690;85;21735;-87
2022/05/16 07:52:11;;;;;;;;;;;;;;;19.22;39.14;101802.81;1708267;83;20205;-86
2022/05/16 07:54:37;;;;;;;;;;;;;;;19.09;39.21;101804.04;1708290;84;20240;-85
2022/05/16 07:57:04;;;;;;;;;;;;;;;18.84;39.42;101784.77;1708377;83;20407;-86
2022/05/16 07:59:31;;;;;;;;;;;;;;;18.97;39.47;101800.85;1708596;84;20673;-87
2022/05/16 08:01:57;;;;;;;;;;;;;;;19.06;39.69;101800.03;1684156;84;21747;-86
2022/05/16 08:04:24;;;;;;;;;;;;;;;19.27;39.77;101803.28;1727829;82;20237;-86
2022/05/16 08:06:50;;;;;;;;;;;;;;;19.54;39.58;101803.84;1725201;82;20202;-87
2022/05/16 08:12:02;;;;;;;;;;;;;;;20.07;39.25;101799.65;1728043;81;20285;-88
2022/05/16 08:14:30;;;;;;;;;;;;;;;20.18;38.80;101793.42;1718734;79;20224;-87
2022/05/16 08:17:00;;;;;;;;;;;;;;;20.08;38.75;101797.41;1727119;81;20447;-87
2022/05/16 08:19:29;;;;;;;;;;;;;;;20.00;38.70;101797.39;1731021;81;21172;-87
2022/05/16 08:21:55;;;;;;;;;;;;;;;19.94;38.41;101798.72;1729172;82;20428;-87
2022/05/16 08:24:22;;;;;;;;;;;;;;;19.92;38.56;101797.38;1725292;83;20194;-86
2022/05/16 08:26:50;;;;;;;;;;;;;;;20.03;38.53;101791.14;1728459;82;21799;-84
2022/05/16 08:29:17;;;;;;;;;;;;;;;20.05;38.42;101794.29;1727817;83;20234;-88
2022/05/16 08:31:43;;;;;;;;;;;;;;;19.93;38.45;101796.91;1717650;82;20261;-87
2022/05/16 08:34:10;;;;;;;;;;;;;;;19.88;38.39;101802.27;1717956;83;20467;-87
2022/05/16 08:42:09;;;;;;;;;;;;;;;19.25;38.26;101809.05;1727656;81;20218;-86
2022/05/16 08:44:41;;;;;;;;;;;;;;;19.13;38.49;101814.77;1725747;83;20487;-87
2022/05/16 08:47:32;;;;;;;;;;;;;;;19.19;38.69;101806.78;1689968;83;21170;-87
2022/05/16 08:50:03;;;;;;;;;;;;;;;19.44;38.81;101808.25;1683741;83;20214;-87
2022/05/16 08:52:44;;;;;;;;;;;;;;;19.86;38.60;101801.36;1700788;82;21781;-87
2022/05/16 08:55:29;;;;;;;;;;;;;;;20.21;38.20;101800.55;1725059;82;20258;-86
2022/05/16 08:58:09;;;;;;;;;;;;;;;20.50;38.05;101793.91;1709739;82;20225;-86
2022/05/16 09:00:47;;;;;;;;;;;;;;;20.72;37.85;101792.17;1697675;83;20355;-86
2022/05/16 09:03:16;;;;;;;;;;;;;;;20.92;37.51;101784.10;1726906;82;20218;-87
2022/05/16 09:05:47;;;;;;;;;;;;;;;21.13;37.19;101787.22;1728096;82;21800;-86
2022/05/16 09:08:16;;;;;;;;;;;;;;;21.34;36.97;101785.34;1728319;82;20242;-86
2022/05/16 09:10:47;;;;;;;;;;;;;;;21.53;36.83;101785.77;1698439;83;20899;-87
2022/05/16 09:13:17;;;;;;;;;;;;;;;21.70;36.29;101789.72;1716863;82;20350;-85
2022/05/16 09:16:11;;;;;;;;;;;;;;;21.74;35.71;101787.92;1706688;82;20262;-86
2022/05/16 09:18:41;;;;;;;;;;;;;;;21.69;35.64;101780.34;1727189;82;21787;-84
2022/05/16 09:21:14;;;;;;;;;;;;;;;21.73;35.68;101783.02;1727634;82;20218;-84
2022/05/16 09:23:51;;;;;;;;;;;;;;;21.83;35.82;101786.97;1727620;81;20210;-84
2022/05/16 09:26:30;;;;;;;;;;;;;;;21.90;35.63;101786.04;1706979;82;20384;-84
2022/05/16 09:29:18;;;;;;;;;;;;;;;21.93;35.75;101786.91;1726790;82;20230;-85
2022/05/16 09:31:46;;;;;;;;;;;;;;;21.90;35.25;101788.30;1727394;82;21749;-83
2022/05/16 09:34:14;;;;;;;;;;;;;;;21.85;35.26;101795.45;1728714;83;20164;-84
2022/05/16 09:36:43;;;;;;;;;;;;;;;21.74;35.09;101775.41;1726920;82;20973;-84
2022/05/16 09:39:11;;;;;;;;;;;;;;;21.92;35.02;101789.17;1727544;82;20344;-94
2022/05/16 09:41:50;;;;;;;;;;;;;;;21.89;35.01;101794.54;1727265;82;20208;-83
2022/05/16 09:44:28;;;;;;;;;;;;;;;21.80;35.04;101795.92;1726681;81;23368;-85
2022/05/16 09:47:19;;;;;;;;;;;;;;;21.86;34.97;101793.20;1717524;82;20224;-84
2022/05/16 09:49:52;;;;;;;;;;;;;;;21.96;35.17;101796.75;1720811;83;21039;-84
2022/05/16 09:52:21;;;;;;;;;;;;;;;22.18;34.87;101795.27;1714954;82;20449;-84
2022/05/16 09:54:52;;;;;;;;;;;;;;;22.17;34.66;101793.47;1725623;83;20226;-85
2022/05/16 09:57:22;;;;;;;;;;;;;;;22.12;34.67;101791.72;1708241;83;22647;-83
2022/05/16 09:59:56;;;;;;;;;;;;;;;22.25;34.92;101795.25;1728372;82;20210;-87
2022/05/16 10:02:24;;;;;;;;;;;;;;;22.37;34.13;101788.89;1727961;82;20187;-83
2022/05/16 10:04:55;;;;;;;;;;;;;;;22.38;33.73;101785.33;1727836;83;20451;-84
2022/05/16 10:07:34;;;;;;;;;;;;;;;22.33;33.54;101777.75;1728449;82;20206;-84
2022/05/16 10:10:01;;;;;;;;;;;;;;;22.32;33.49;101780.90;1701515;82;21764;-84
2022/05/16 10:12:28;;;;;;;;;;;;;;;22.23;33.25;101785.41;1703924;83;20210;-84
2022/05/16 10:14:54;;;;;;;;;;;;;;;22.07;33.23;101781.92;1718946;83;20206;-85
2022/05/16 10:17:27;;;;;;;;;;;;;;;21.94;33.26;101783.35;1680936;82;20646;-86
2022/05/16 10:19:55;;;;;;;;;;;;;;;21.77;33.37;101777.62;1708583;82;20483;-85
2022/05/16 10:22:25;;;;;;;;;;;;;;;21.80;33.48;101779.84;1697952;82;21902;-85
2022/05/16 10:24:52;;;;;;;;;;;;;;;21.62;33.73;101783.48;1694460;83;20349;-84
2022/05/16 10:27:25;;;;;;;;;;;;;;;21.35;34.41;101789.82;1689570;83;20207;-84
2022/05/16 10:29:53;;;;;;;;;;;;;;;21.14;34.72;101790.32;1719961;83;21369;-87
2022/05/16 10:35:13;;;;;;;;;;;;;;;20.81;35.10;101789.03;1691484;83;21762;-86
2022/05/16 10:37:44;;;;;;;;;;;;;;;20.58;35.46;101786.77;1694731;82;20245;-85
2022/05/16 10:40:22;;;;;;;;;;;;;;;20.38;35.50;101784.53;1694725;82;20249;-86
2022/05/16 10:42:58;;;;;;;;;;;;;;;20.20;35.84;101794.77;1693329;84;21190;-86
2022/05/16 10:45:25;;;;;;;;;;;;;;;20.05;36.12;101790.28;1716164;82;20257;-85
2022/05/16 10:48:08;;;;;;;;;;;;;;;19.81;36.46;101787.09;1694849;83;21740;-85
2022/05/16 10:50:41;;;;;;;;;;;;;;;19.67;36.77;101792.36;1688033;83;20242;-85
2022/05/16 10:53:17;;;;;;;;;;;;;;;19.58;37.08;101786.53;1716593;83;20237;-85
2022/05/16 10:55:52;;;;;;;;;;;;;;;19.58;37.52;101781.64;1723002;82;20402;-86
2022/05/16 10:58:37;;;;;;;;;;;;;;;19.72;37.41;101775.00;1694512;83;20237;-85
2022/05/16 11:01:11;;;;;;;;;;;;;;;19.75;36.95;101769.72;1723872;83;22403;-86
2022/05/16 11:04:13;;;;;;;;;;;;;;;19.74;36.89;101766.13;1725713;83;20246;-86
2022/05/16 11:06:45;;;;;;;;;;;;;;;19.78;37.01;101764.36;1588351;89;20232;-86
2022/05/16 11:09:32;;;;;;;;;;;;;;;19.73;37.07;101773.71;1692487;83;20415;-85
2022/05/16 11:12:08;;;;;;;;;;;;;;;19.51;37.34;101763.34;1718256;83;20178;-85
2022/05/16 11:14:48;;;;;;;;;;;;;;;19.20;37.73;101770.30;1718587;82;21645;-85
2022/05/16 11:17:27;;;;;;;;;;;;;;;18.89;38.02;101774.12;1730187;81;20228;-86
2022/05/16 11:20:06;;;;;;;;;;;;;;;18.67;38.45;101777.03;1736085;82;20545;-85
2022/05/16 11:22:38;;;;;;;;;;;;;;;18.57;38.49;101801.40;1711937;82;20379;-86
2022/05/16 11:25:27;;;;;;;;;;;;;;;18.56;38.83;101781.38;1738880;82;21163;-86
2022/05/16 11:28:00;;;;;;;;;;;;;;;18.59;39.19;101768.97;1738618;82;21794;-86
2022/05/16 11:30:45;;;;;;;;;;;;;;;18.63;39.58;101792.55;1723544;82;21003;-85
2022/05/16 11:33:37;;;;;;;;;;;;;;;18.60;39.41;101793.44;1718126;82;20192;-85
2022/05/16 11:36:24;;;;;;;;;;;;;;;18.44;39.88;101784.84;1709310;83;20430;-85
2022/05/16 11:39:18;;;;;;;;;;;;;;;18.43;40.34;101785.30;1695438;83;20215;-85
2022/05/16 11:41:48;;;;;;;;;;;;;;;18.44;40.43;101781.73;1697766;83;21759;-86
2022/05/16 11:44:24;;;;;;;;;;;;;;;18.41;40.20;101794.13;1701242;82;20846;-85
2022/05/16 11:46:53;;;;;;;;;;;;;;;18.31;40.27;101786.95;1709981;83;20202;-86
2022/05/16 11:49:29;;;;;;;;;;;;;;;18.29;40.59;101795.37;1719516;82;20375;-85
2022/05/16 11:52:16;;;;;;;;;;;;;;;18.33;40.80;101788.73;1704426;82;20238;-86
2022/05/16 11:54:55;;;;;;;;;;;;;;;18.39;40.63;101787.48;1734825;82;21746;-86
2022/05/16 12:03:12;;;;;;;;;;;;;;;18.57;40.02;101792.06;1691180;83;20415;-85
2022/05/16 12:05:40;;;;;;;;;;;;;;;18.58;39.00;101783.62;1690534;83;20213;-85
2022/05/16 12:08:25;;;;;;;;;;;;;;;18.60;39.15;101781.85;1690452;83;21720;-85
2022/05/16 12:11:04;;;;;;;;;;;;;;;18.61;38.89;101778.32;1701083;83;20505;-85
2022/05/16 12:13:33;;;;;;;;;;;;;;;18.60;39.14;101777.44;1717348;83;20203;-86
2022/05/16 12:16:18;;;;;;;;;;;;;;;18.56;39.02;101770.72;1688936;83;20631;-86
2022/05/16 12:18:47;;;;;;;;;;;;;;;18.57;38.76;101772.06;1751238;81;20767;-86
2022/05/16 12:21:22;;;;;;;;;;;;;;;18.60;38.65;101778.77;1728270;81;21794;-86
2022/05/16 12:23:52;;;;;;;;;;;;;;;18.58;38.34;101785.87;1747195;81;21445;-86
2022/05/16 12:26:31;;;;;;;;;;;;;;;18.56;38.55;101777.38;1746651;82;20658;-86
2022/05/16 12:29:13;;;;;;;;;;;;;;;18.56;37.93;101774.30;1745908;81;20411;-86
2022/05/16 12:31:49;;;;;;;;;;;;;;;18.52;37.31;101768.91;1727322;82;20204;-85
2022/05/16 12:34:32;;;;;;;;;;;;;;;18.54;37.47;101770.70;1728170;82;21941;-85
2022/05/16 12:36:59;;;;;;;;;;;;;;;18.59;37.60;101768.97;1717859;83;21330;-86
2022/05/16 12:39:46;;;;;;;;;;;;;;;18.54;37.77;101767.14;1689626;82;20231;-86
2022/05/16 12:42:25;;;;;;;;;;;;;;;18.57;37.97;101767.19;1736785;82;21027;-85
2022/05/16 12:44:59;;;;;;;;;;;;;;;18.53;37.68;101768.92;1730870;82;20189;-85
2022/05/16 12:47:50;;;;;;;;;;;;;;;18.47;37.69;101775.55;1718716;82;22776;-85
2022/05/16 12:50:20;;;;;;;;;;;;;;;18.42;37.22;101764.83;1709200;83;20848;-85
2022/05/16 12:53:16;;;;;;;;;;;;;;;18.35;37.43;101766.98;1707028;82;20192;-85
2022/05/16 12:55:46;;;;;;;;;;;;;;;18.33;37.49;101766.08;1720075;82;20354;-85
2022/05/16 12:58:37;;;;;;;;;;;;;;;18.32;37.50;101770.97;1737100;82;20225;-85
2022/05/16 13:01:19;;;;;;;;;;;;;;;18.34;37.17;101769.63;1719810;82;21826;-86
2022/05/16 13:04:10;;;;;;;;;;;;;;;18.30;37.15;101768.73;1715033;82;20206;-86
2022/05/16 13:06:43;;;;;;;;;;;;;;;18.19;37.66;101773.95;1716028;81;20215;-85
2022/05/16 13:09:14;;;;;;;;;;;;;;;18.24;37.85;101772.23;1726750;82;20390;-85
2022/05/16 13:11:49;;;;;;;;;;;;;;;18.26;37.80;101769.55;1679702;82;20205;-86
2022/05/16 13:14:46;;;;;;;;;;;;;;;18.21;37.94;101775.30;1695434;82;21890;-85
2022/05/16 13:17:18;;;;;;;;;;;;;;;18.16;38.58;101766.36;1721882;82;20225;-86
2022/05/16 13:19:47;;;;;;;;;;;;;;;18.15;38.81;101772.14;1701856;83;20351;-85
2022/05/16 13:22:19;;;;;;;;;;;;;;;18.16;39.04;101765.91;1703755;83;20393;-85
2022/05/16 13:24:45;;;;;;;;;;;;;;;18.24;39.16;101768.66;1700333;83;20268;-86
2022/05/16 13:30:08;;;;;;;;;;;;;;;18.34;38.87;101762.55;1684787;84;20212;-85
2022/05/16 13:32:34;;;;;;;;;;;;;;;18.30;38.77;101767.41;1702855;83;20236;-86
2022/05/16 13:35:07;;;;;;;;;;;;;;;18.19;38.62;101761.08;1683568;84;20376;-85
2022/05/16 13:37:42;;;;;;;;;;;;;;;18.03;38.89;101756.90;1703323;83;20830;-86
2022/05/16 13:40:21;;;;;;;;;;;;;;;17.94;39.51;101755.47;1683971;84;21802;-86
2022/05/16 13:42:48;;;;;;;;;;;;;;;17.96;39.92;101752.41;1703185;83;20538;-85
2022/05/16 13:45:14;;;;;;;;;;;;;;;17.88;39.80;101740.31;1703318;83;20211;-86